createdAt,value
2019-03-24T00:03:01.776Z,102326.75
2019-03-24T00:08:06.539Z,102335.92
2019-03-24T00:13:11.334Z,102328.92
2019-03-24T00:18:16.114Z,102334.98
2019-03-24T00:23:20.986Z,102331.80
2019-03-24T00:28:25.879Z,102330.30
2019-03-24T00:33:30.646Z,102342.51
2019-03-24T00:38:35.440Z,102336.31
2019-03-24T00:43:40.214Z,102337.84
2019-03-24T00:48:44.979Z,102335.17
2019-03-24T00:53:49.746Z,102338.35
2019-03-24T00:58:54.490Z,102340.01
2019-03-24T01:03:59.259Z,102345.35
2019-03-24T01:09:04.916Z,102339.32
2019-03-24T01:14:09.676Z,102336.17
2019-03-24T01:19:14.544Z,102328.67
2019-03-24T01:24:19.409Z,102335.49
2019-03-24T01:29:24.177Z,102328.16
2019-03-24T01:34:28.943Z,102323.84
2019-03-24T01:39:33.699Z,102319.32
2019-03-24T01:44:38.469Z,102320.48
2019-03-24T01:49:43.312Z,102320.50
2019-03-24T01:54:48.066Z,102318.17
2019-03-24T01:59:52.830Z,102317.14
2019-03-24T02:04:57.581Z,102310.33
2019-03-24T02:10:02.348Z,102303.31
2019-03-24T02:15:07.635Z,102300.45
2019-03-24T02:20:13.332Z,102300.44
2019-03-24T02:25:18.207Z,102303.41
2019-03-24T02:30:22.974Z,102302.91
2019-03-24T02:35:27.746Z,102296.42
2019-03-24T02:40:32.519Z,102303.66
2019-03-24T02:45:37.281Z,102300.31
2019-03-24T02:50:42.030Z,102293.12
2019-03-24T02:55:46.898Z,102288.39
2019-03-24T03:00:51.807Z,102286.05
2019-03-24T03:05:56.706Z,102281.69
2019-03-24T03:11:01.484Z,102284.00
2019-03-24T03:16:06.246Z,102284.48
2019-03-24T03:21:11.002Z,102293.76
2019-03-24T03:26:15.757Z,102295.75
2019-03-24T03:31:20.526Z,102291.41
2019-03-24T03:36:25.807Z,102285.11
2019-03-24T03:41:30.775Z,102296.55
2019-03-24T03:46:35.556Z,102291.15
2019-03-24T03:51:40.292Z,102286.14
2019-03-24T03:56:45.199Z,102278.80
2019-03-24T04:01:50.024Z,102278.59
2019-03-24T04:06:54.887Z,102269.41
2019-03-24T04:11:59.642Z,102271.41
2019-03-24T04:17:07.641Z,102269.22
2019-03-24T04:22:10.893Z,102275.82
2019-03-24T04:27:15.645Z,102271.13
2019-03-24T04:32:20.400Z,102269.61
2019-03-24T04:37:25.154Z,102265.10
2019-03-24T04:42:29.908Z,102266.52
2019-03-24T04:47:34.667Z,102270.64
2019-03-24T04:52:39.536Z,102276.48
2019-03-24T04:57:44.406Z,102265.39
2019-03-24T05:02:49.176Z,102261.52
2019-03-24T05:07:54.361Z,102264.47
2019-03-24T05:12:59.241Z,102256.50
2019-03-24T05:18:04.095Z,102251.92
2019-03-24T05:23:08.858Z,102251.45
2019-03-24T05:28:13.629Z,102247.11
2019-03-24T05:33:18.398Z,102250.89
2019-03-24T05:38:23.161Z,102246.39
2019-03-24T05:43:27.918Z,102249.72
2019-03-24T05:48:32.685Z,102248.59
2019-03-24T05:53:37.429Z,102254.97
2019-03-24T05:58:42.218Z,102262.53
2019-03-24T06:03:46.999Z,102259.10
2019-03-24T06:08:51.759Z,102256.71
2019-03-24T06:13:56.539Z,102250.59
2019-03-24T06:19:01.445Z,102248.72
2019-03-24T06:24:06.217Z,102241.84
2019-03-24T06:29:10.971Z,102237.81
2019-03-24T06:34:15.724Z,102225.22
2019-03-24T06:39:20.475Z,102231.21
2019-03-24T06:44:25.244Z,102225.25
2019-03-24T06:49:30.012Z,102215.05
2019-03-24T06:54:34.762Z,102216.61
2019-03-24T06:59:39.642Z,102220.80
2019-03-24T07:04:44.447Z,102220.77
2019-03-24T07:09:49.189Z,102223.77
2019-03-24T07:14:53.950Z,102217.30
2019-03-24T07:19:58.710Z,102221.31
2019-03-24T07:25:03.466Z,102218.64
2019-03-24T07:30:10.715Z,102221.62
2019-03-24T07:35:18.225Z,102207.00
2019-03-24T07:40:22.341Z,102206.52
2019-03-24T07:45:27.210Z,102209.37
2019-03-24T07:50:31.959Z,102204.00
2019-03-24T07:55:36.734Z,102199.17
2019-03-24T08:00:41.513Z,102212.65
2019-03-24T08:05:46.274Z,102212.96
2019-03-24T08:10:51.036Z,102209.94
2019-03-24T08:15:55.797Z,102214.05
2019-03-24T08:21:00.556Z,102206.50
2019-03-24T08:26:05.306Z,102206.68
2019-03-24T08:31:10.154Z,102194.25
2019-03-24T08:36:15.755Z,102179.22
2019-03-24T08:41:20.566Z,102167.74
2019-03-24T08:46:25.319Z,102156.21
2019-03-24T08:51:30.230Z,102155.48
2019-03-24T08:56:34.984Z,102149.46
2019-03-24T09:01:39.769Z,102135.34
2019-03-24T09:06:44.530Z,102136.08
2019-03-24T09:11:49.303Z,102125.86
2019-03-24T09:16:54.077Z,102123.52
2019-03-24T09:21:58.868Z,102103.12
2019-03-24T09:27:03.750Z,102090.18
2019-03-24T09:32:08.516Z,102090.98
2019-03-24T09:37:13.391Z,102085.81
2019-03-24T09:42:18.167Z,102081.64
2019-03-24T09:47:22.939Z,102071.25
2019-03-24T09:52:27.704Z,102066.64
2019-03-24T09:57:32.517Z,102064.17
2019-03-24T10:02:37.343Z,102069.45
2019-03-24T10:07:42.357Z,102059.48
2019-03-24T10:12:47.141Z,102057.06
2019-03-24T10:17:52.147Z,102047.48
2019-03-24T10:22:56.947Z,102040.56
2019-03-24T10:28:01.945Z,102023.02
2019-03-24T10:33:06.756Z,102011.02
2019-03-24T10:38:11.548Z,102012.95
2019-03-24T10:43:16.312Z,102015.73
2019-03-24T10:48:21.117Z,102019.92
2019-03-24T10:53:25.989Z,102006.06
2019-03-24T10:58:30.780Z,101997.83
2019-03-24T11:03:35.666Z,101987.48
2019-03-24T11:08:40.447Z,101976.98
2019-03-24T11:13:45.229Z,101960.92
2019-03-24T11:18:50.020Z,101951.59
2019-03-24T11:23:54.808Z,101942.00
2019-03-24T11:28:59.574Z,101939.92
2019-03-24T11:34:04.380Z,101932.92
2019-03-24T11:39:09.686Z,101923.53
2019-03-24T11:44:14.471Z,101899.06
2019-03-24T11:49:20.189Z,101905.27
2019-03-24T11:54:24.967Z,101903.38
2019-03-24T11:59:29.832Z,101899.36
2019-03-24T12:04:34.608Z,101901.15
2019-03-24T12:09:39.597Z,101884.80
2019-03-24T12:14:44.411Z,101873.84
2019-03-24T12:19:56.714Z,101858.52
2019-03-24T12:24:55.759Z,101849.02
2019-03-24T12:30:00.646Z,101844.09
2019-03-24T12:35:05.952Z,101829.84
2019-03-24T12:40:11.647Z,101815.52
2019-03-24T12:45:16.837Z,101801.43
2019-03-24T12:50:31.064Z,101797.48
2019-03-24T12:55:28.152Z,101782.16
2019-03-24T13:00:35.007Z,101780.23
2019-03-24T13:05:39.799Z,101773.36
2019-03-24T13:10:45.807Z,101761.06
2019-03-24T13:15:50.662Z,101747.34
2019-03-24T13:20:55.457Z,101746.81
2019-03-24T13:26:00.226Z,101735.32
2019-03-24T13:31:05.114Z,101728.37
2019-03-24T13:36:12.354Z,101719.28
2019-03-24T13:41:17.129Z,101720.95
2019-03-24T13:46:21.914Z,101722.14
2019-03-24T13:51:26.855Z,101719.76
2019-03-24T13:56:31.648Z,101707.27
2019-03-24T14:01:36.444Z,101702.73
2019-03-24T14:06:41.241Z,101703.09
2019-03-24T14:11:46.054Z,101695.05
2019-03-24T14:16:50.847Z,101690.96
2019-03-24T14:21:55.722Z,101681.37
2019-03-24T14:27:00.606Z,101675.86
2019-03-24T14:32:05.408Z,101679.46
2019-03-24T14:37:11.794Z,101672.93
2019-03-24T14:42:16.696Z,101668.28
2019-03-24T14:47:22.554Z,101664.44
2019-03-24T14:52:27.690Z,101660.30
2019-03-24T14:57:32.495Z,101661.88
2019-03-24T15:02:37.277Z,101651.72
2019-03-24T15:07:42.071Z,101649.77
2019-03-24T15:12:46.990Z,101644.78
2019-03-24T15:17:51.780Z,101642.01
2019-03-24T15:22:56.565Z,101644.60
2019-03-24T15:28:01.395Z,101624.78
2019-03-24T15:33:06.180Z,101648.58
2019-03-24T15:38:11.096Z,101643.54
2019-03-24T15:43:15.907Z,101652.20
2019-03-24T15:48:20.689Z,101640.16
2019-03-24T15:53:25.477Z,101634.66
2019-03-24T15:58:30.317Z,101626.85
2019-03-24T16:03:35.155Z,101617.91
2019-03-24T16:08:39.954Z,101609.05
2019-03-24T16:13:44.753Z,101606.16
2019-03-24T16:18:49.547Z,101611.53
2019-03-24T16:23:54.332Z,101605.68
2019-03-24T16:28:59.124Z,101602.53
2019-03-24T16:34:05.473Z,101587.32
2019-03-24T16:39:10.533Z,101594.17
2019-03-24T16:44:15.328Z,101579.80
2019-03-24T16:49:20.131Z,101572.50
2019-03-24T16:54:24.928Z,101573.59
2019-03-24T16:59:29.851Z,101571.45
2019-03-24T17:04:34.805Z,101581.39
2019-03-24T17:09:39.639Z,101569.47
2019-03-24T17:14:45.517Z,101569.25
2019-03-24T17:19:50.474Z,101565.73
2019-03-24T17:24:55.267Z,101565.56
2019-03-24T17:30:00.074Z,101561.66
2019-03-24T17:35:04.986Z,101557.57
2019-03-24T17:40:12.548Z,101560.24
2019-03-24T17:45:18.017Z,101550.77
2019-03-24T17:50:22.785Z,101553.26
2019-03-24T17:55:29.939Z,101541.59
2019-03-24T18:00:39.319Z,101543.16
2019-03-24T18:05:44.120Z,101534.46
2019-03-24T18:10:48.899Z,101528.98
2019-03-24T18:15:53.673Z,101527.59
2019-03-24T18:20:58.590Z,101538.03
2019-03-24T18:26:03.765Z,101505.16
2019-03-24T18:31:08.706Z,101520.02
2019-03-24T18:36:14.024Z,101518.45
2019-03-24T18:41:19.257Z,101514.31
2019-03-24T18:46:24.161Z,101512.21
2019-03-24T18:51:29.016Z,101512.64
2019-03-24T18:56:33.819Z,101514.50
2019-03-24T19:01:40.272Z,101505.21
2019-03-24T19:06:45.371Z,101500.53
2019-03-24T19:11:51.780Z,101491.21
2019-03-24T19:16:57.101Z,101490.48
2019-03-24T19:22:02.044Z,101484.63
2019-03-24T19:27:07.330Z,101480.86
2019-03-24T19:32:12.955Z,101477.45
2019-03-24T19:37:18.543Z,101471.36
2019-03-24T19:42:23.697Z,101466.41
2019-03-24T19:47:28.838Z,101470.22
2019-03-24T19:52:44.153Z,101458.20
2019-03-24T19:57:41.014Z,101453.75
2019-03-24T20:02:50.676Z,101441.89
2019-03-24T20:07:56.265Z,101434.85
2019-03-24T20:13:01.847Z,101437.98
2019-03-24T20:18:11.473Z,101433.42
2019-03-24T20:23:16.703Z,101425.95
2019-03-24T20:28:21.809Z,101425.08
2019-03-24T20:33:26.886Z,101410.78
2019-03-24T20:38:31.860Z,101412.46
2019-03-24T20:43:36.750Z,101399.33
2019-03-24T20:48:41.556Z,101394.02
2019-03-24T20:53:46.351Z,101394.88
2019-03-24T20:58:51.155Z,101394.62
2019-03-24T21:03:55.938Z,101397.67
2019-03-24T21:09:00.731Z,101381.88
2019-03-24T21:14:05.626Z,101376.48
2019-03-24T21:19:10.409Z,101376.59
2019-03-24T21:24:15.192Z,101380.14
2019-03-24T21:29:19.987Z,101378.44
2019-03-24T21:34:24.771Z,101370.64
2019-03-24T21:39:29.557Z,101361.69
2019-03-24T21:44:34.339Z,101357.96
2019-03-24T21:49:39.209Z,101357.00
2019-03-24T21:54:43.990Z,101354.67
2019-03-24T21:59:48.874Z,101343.09
2019-03-24T22:04:55.925Z,101339.11
2019-03-24T22:10:00.333Z,101330.86
2019-03-24T22:15:05.959Z,101327.83
2019-03-24T22:20:10.770Z,101317.32
2019-03-24T22:25:15.507Z,101305.53
2019-03-24T22:30:21.074Z,101291.34
2019-03-24T22:35:25.856Z,101285.06
2019-03-24T22:40:30.619Z,101281.06
2019-03-24T22:45:35.555Z,101274.41
2019-03-24T22:50:40.321Z,101259.04
2019-03-24T22:55:45.197Z,101262.77
2019-03-24T23:00:52.848Z,101252.87
2019-03-24T23:05:57.619Z,101244.82
2019-03-24T23:11:02.396Z,101239.98
2019-03-24T23:16:07.167Z,101237.83
2019-03-24T23:21:11.997Z,101233.18
2019-03-24T23:26:16.782Z,101227.56
2019-03-24T23:31:21.603Z,101222.17
2019-03-24T23:36:26.367Z,101217.55
2019-03-24T23:41:31.135Z,101202.38
2019-03-24T23:46:35.902Z,101191.78
2019-03-24T23:51:40.767Z,101187.93
2019-03-24T23:56:45.635Z,101186.09
